createdAt,value
2023-05-13T00:00:15.293Z,97797.00
2023-05-13T00:02:41.769Z,97804.00
2023-05-13T00:05:08.147Z,97788.00
2023-05-13T00:07:35.965Z,97793.00
2023-05-13T00:10:02.354Z,97795.00
2023-05-13T00:12:30.303Z,97795.00
2023-05-13T00:14:56.450Z,97806.00
2023-05-13T00:17:22.881Z,97787.00
2023-05-13T00:19:48.987Z,97791.00
2023-05-13T00:22:15.214Z,97795.00
2023-05-13T00:24:41.398Z,97794.00
2023-05-13T00:27:07.910Z,97796.00
2023-05-13T00:29:34.290Z,97789.00
2023-05-13T00:32:00.588Z,97790.00
2023-05-13T00:34:26.796Z,97786.00
2023-05-13T00:36:52.996Z,97791.00
2023-05-13T00:39:19.121Z,97789.00
2023-05-13T00:41:45.318Z,97793.00
2023-05-13T00:44:13.888Z,97796.00
2023-05-13T00:46:41.023Z,97791.00
2023-05-13T00:49:07.764Z,97775.00
2023-05-13T00:51:34.271Z,97792.00
2023-05-13T00:54:00.511Z,97790.00
2023-05-13T00:56:26.970Z,97776.00
2023-05-13T00:58:53.169Z,97787.00
2023-05-13T01:01:33.711Z,97795.00
2023-05-13T01:04:24.775Z,97803.00
2023-05-13T01:07:16.242Z,97796.00
2023-05-13T01:10:11.102Z,97799.00
2023-05-13T01:12:41.499Z,97795.00
2023-05-13T01:15:15.709Z,97795.00
2023-05-13T01:18:17.447Z,97786.00
2023-05-13T01:20:45.291Z,97786.00
2023-05-13T01:23:11.942Z,97798.00
2023-05-13T01:25:40.098Z,97787.00
2023-05-13T01:28:08.523Z,97795.00
2023-05-13T01:30:36.559Z,97789.00
2023-05-13T01:33:05.013Z,97808.00
2023-05-13T01:35:31.997Z,97794.00
2023-05-13T01:38:00.844Z,97807.00
2023-05-13T01:40:32.809Z,97791.00
2023-05-13T01:43:04.708Z,97798.00
2023-05-13T01:45:32.904Z,97786.00
2023-05-13T01:48:00.404Z,97808.00
2023-05-13T01:50:35.378Z,97809.00
2023-05-13T01:53:01.990Z,97813.00
2023-05-13T01:55:28.475Z,97803.00
2023-05-13T01:57:55.330Z,97807.00
2023-05-13T02:00:22.362Z,97804.00
2023-05-13T02:02:49.665Z,97789.00
2023-05-13T02:05:16.288Z,97801.00
2023-05-13T02:07:42.726Z,97781.00
2023-05-13T02:10:09.955Z,97795.00
2023-05-13T02:12:36.098Z,97790.00
2023-05-13T02:15:04.162Z,97801.00
2023-05-13T02:17:30.357Z,97800.00
2023-05-13T02:19:56.848Z,97807.00
2023-05-13T02:22:23.017Z,97805.00
2023-05-13T02:24:49.178Z,97799.00
2023-05-13T02:27:15.799Z,97793.00
2023-05-13T02:29:42.641Z,97790.00
2023-05-13T02:32:09.135Z,97807.00
2023-05-13T02:34:35.382Z,97812.00
2023-05-13T02:37:03.162Z,97803.00
2023-05-13T02:39:30.163Z,97801.00
2023-05-13T02:41:59.218Z,97801.00
2023-05-13T02:44:30.810Z,97790.00
2023-05-13T02:46:57.223Z,97792.00
2023-05-13T02:49:23.825Z,97792.00
2023-05-13T02:51:50.108Z,97800.00
2023-05-13T02:54:19.002Z,97788.00
2023-05-13T02:56:45.135Z,97796.00
2023-05-13T02:59:11.552Z,97801.00
2023-05-13T03:01:38.176Z,97799.00
2023-05-13T03:04:04.633Z,97783.00
2023-05-13T03:06:31.391Z,97787.00
2023-05-13T03:08:57.520Z,97783.00
2023-05-13T03:11:23.711Z,97782.00
2023-05-13T03:13:49.862Z,97772.00
2023-05-13T03:16:16.054Z,97793.00
2023-05-13T03:18:42.532Z,97793.00
2023-05-13T03:21:08.959Z,97791.00
2023-05-13T03:23:36.805Z,97788.00
2023-05-13T03:26:04.163Z,97789.00
2023-05-13T03:28:30.965Z,97781.00
2023-05-13T03:30:57.541Z,97781.00
2023-05-13T03:33:23.942Z,97790.00
2023-05-13T03:35:50.358Z,97778.00
2023-05-13T03:38:22.039Z,97780.00
2023-05-13T03:40:49.901Z,97782.00
2023-05-13T03:43:16.963Z,97786.00
2023-05-13T03:45:47.992Z,97791.00
2023-05-13T03:48:17.859Z,97796.00
2023-05-13T03:50:44.903Z,97800.00
2023-05-13T03:53:11.724Z,97797.00
2023-05-13T03:55:39.263Z,97796.00
2023-05-13T03:58:15.547Z,97815.00
2023-05-13T04:00:45.789Z,97812.00
2023-05-13T04:03:12.945Z,97836.00
2023-05-13T04:05:39.865Z,97813.00
2023-05-13T04:08:06.021Z,97821.00
2023-05-13T04:10:32.583Z,97821.00
2023-05-13T04:12:59.206Z,97826.00
2023-05-13T04:15:25.366Z,97821.00
2023-05-13T04:17:51.856Z,97815.00
2023-05-13T04:20:18.091Z,97811.00
2023-05-13T04:22:44.254Z,97817.00
2023-05-13T04:25:10.703Z,97825.00
2023-05-13T04:27:36.864Z,97819.00
2023-05-13T04:30:10.519Z,97821.00
2023-05-13T04:32:38.815Z,97826.00
2023-05-13T04:35:07.508Z,97811.00
2023-05-13T04:37:34.146Z,97811.00
2023-05-13T04:40:04.889Z,97822.00
2023-05-13T04:42:31.789Z,97829.00
2023-05-13T04:44:58.428Z,97826.00
2023-05-13T04:47:24.657Z,97816.00
2023-05-13T04:49:50.911Z,97815.00
2023-05-13T04:52:18.730Z,97828.00
2023-05-13T04:54:45.105Z,97826.00
2023-05-13T04:57:11.478Z,97831.00
2023-05-13T04:59:37.617Z,97840.00
2023-05-13T05:02:03.955Z,97828.00
2023-05-13T05:04:30.499Z,97825.00
2023-05-13T05:06:57.259Z,97834.00
2023-05-13T05:09:23.406Z,97844.00
2023-05-13T05:11:51.649Z,97823.00
2023-05-13T05:14:20.162Z,97844.00
2023-05-13T05:16:47.712Z,97840.00
2023-05-13T05:19:14.624Z,97831.00
2023-05-13T05:21:41.312Z,97839.00
2023-05-13T05:24:08.257Z,97830.00
2023-05-13T05:26:35.099Z,97836.00
2023-05-13T05:29:01.464Z,97841.00
2023-05-13T05:31:28.294Z,97831.00
2023-05-13T05:33:56.298Z,97832.00
2023-05-13T05:36:22.759Z,97844.00
2023-05-13T05:38:50.023Z,97833.00
2023-05-13T05:41:16.599Z,97838.00
2023-05-13T05:43:43.178Z,97831.00
2023-05-13T05:46:09.420Z,97826.00
2023-05-13T05:48:35.686Z,97832.00
2023-05-13T05:51:03.201Z,97848.00
2023-05-13T05:53:34.871Z,97844.00
2023-05-13T05:56:01.871Z,97845.00
2023-05-13T05:58:29.335Z,97852.00
2023-05-13T06:00:57.517Z,97852.00
2023-05-13T06:03:25.428Z,97846.00
2023-05-13T06:05:52.947Z,97863.00
2023-05-13T06:08:19.356Z,97849.00
2023-05-13T06:10:45.863Z,97853.00
2023-05-13T06:13:12.841Z,97858.00
2023-05-13T06:15:39.304Z,97850.00
2023-05-13T06:18:05.733Z,97847.00
2023-05-13T06:20:34.006Z,97848.00
2023-05-13T06:23:00.370Z,97850.00
2023-05-13T06:25:26.512Z,97845.00
2023-05-13T06:27:52.936Z,97862.00
2023-05-13T06:30:22.710Z,97855.00
2023-05-13T06:32:57.701Z,97855.00
2023-05-13T06:35:28.141Z,97871.00
2023-05-13T06:37:54.538Z,97869.00
2023-05-13T06:40:20.980Z,97854.00
2023-05-13T06:42:47.852Z,97861.00
2023-05-13T06:45:22.509Z,97862.00
2023-05-13T06:47:52.987Z,97866.00
2023-05-13T06:50:19.619Z,97861.00
2023-05-13T06:52:46.809Z,97866.00
2023-05-13T06:55:13.075Z,97858.00
2023-05-13T06:57:42.853Z,97858.00
2023-05-13T07:00:10.562Z,97850.00
2023-05-13T07:02:36.951Z,97864.00
2023-05-13T07:05:03.466Z,97867.00
2023-05-13T07:07:29.606Z,97849.00
2023-05-13T07:09:55.916Z,97852.00
2023-05-13T07:12:22.146Z,97854.00
2023-05-13T07:14:48.310Z,97859.00
2023-05-13T07:17:14.821Z,97850.00
2023-05-13T07:19:41.284Z,97850.00
2023-05-13T07:22:07.456Z,97862.00
2023-05-13T07:24:33.600Z,97844.00
2023-05-13T07:27:00.637Z,97846.00
2023-05-13T07:29:27.713Z,97849.00
2023-05-13T07:31:54.147Z,97856.00
2023-05-13T07:34:20.684Z,97838.00
2023-05-13T07:36:47.189Z,97844.00
2023-05-13T07:39:13.345Z,97841.00
2023-05-13T07:41:39.568Z,97849.00
2023-05-13T07:44:11.091Z,97839.00
2023-05-13T07:46:37.457Z,97831.00
2023-05-13T07:49:06.017Z,97842.00
2023-05-13T07:51:32.468Z,97846.00
2023-05-13T07:53:58.825Z,97828.00
2023-05-13T07:56:25.191Z,97833.00
2023-05-13T07:58:51.323Z,97837.00
2023-05-13T08:01:17.493Z,97835.00
2023-05-13T08:03:43.992Z,97827.00
2023-05-13T08:06:10.624Z,97841.00
2023-05-13T08:08:36.831Z,97837.00
2023-05-13T08:11:03.277Z,97836.00
2023-05-13T08:13:29.691Z,97836.00
2023-05-13T08:15:55.966Z,97826.00
2023-05-13T08:18:22.197Z,97835.00
2023-05-13T08:20:48.300Z,97836.00
2023-05-13T08:23:14.447Z,97834.00
2023-05-13T08:25:40.704Z,97820.00
2023-05-13T08:28:06.867Z,97830.00
2023-05-13T08:30:33.058Z,97829.00
2023-05-13T08:32:59.277Z,97826.00
2023-05-13T08:35:25.720Z,97814.00
2023-05-13T08:37:51.844Z,97822.00
2023-05-13T08:40:18.321Z,97819.00
2023-05-13T08:42:49.576Z,97823.00
2023-05-13T08:45:19.760Z,97831.00
2023-05-13T08:47:57.693Z,97836.00
2023-05-13T08:50:26.056Z,97835.00
2023-05-13T08:52:53.293Z,97823.00
2023-05-13T08:55:20.101Z,97837.00
2023-05-13T08:57:46.603Z,97836.00
2023-05-13T09:00:14.165Z,97827.00
2023-05-13T09:02:44.109Z,97834.00
2023-05-13T09:05:10.698Z,97829.00
2023-05-13T09:07:39.004Z,97833.00
2023-05-13T09:10:07.293Z,97821.00
2023-05-13T09:12:53.577Z,97817.00
2023-05-13T09:15:26.453Z,97807.00
2023-05-13T09:18:06.074Z,97802.00
2023-05-13T09:20:33.555Z,97802.00
2023-05-13T09:23:07.456Z,97799.00
2023-05-13T09:25:35.690Z,97807.00
2023-05-13T09:28:05.085Z,97800.00
2023-05-13T09:30:46.696Z,97794.00
2023-05-13T09:33:20.871Z,97812.00
2023-05-13T09:35:53.043Z,97813.00
2023-05-13T09:38:28.333Z,97814.00
2023-05-13T09:41:00.938Z,97803.00
2023-05-13T09:43:32.616Z,97814.00
2023-05-13T09:46:04.361Z,97811.00
2023-05-13T09:48:33.661Z,97828.00
2023-05-13T09:51:00.192Z,97831.00
2023-05-13T09:53:27.903Z,97852.00
2023-05-13T09:55:56.674Z,97875.00
2023-05-13T09:58:27.861Z,97895.00
2023-05-13T10:00:54.532Z,97881.00
2023-05-13T10:03:21.689Z,97863.00
2023-05-13T10:05:49.419Z,97871.00
2023-05-13T10:08:17.891Z,97871.00
2023-05-13T10:10:47.212Z,97853.00
2023-05-13T10:13:17.262Z,97863.00
2023-05-13T10:15:53.651Z,97854.00
2023-05-13T10:18:22.912Z,97862.00
2023-05-13T10:20:52.351Z,97861.00
2023-05-13T10:23:20.445Z,97844.00
2023-05-13T10:25:48.490Z,97848.00
2023-05-13T10:28:16.124Z,97837.00
2023-05-13T10:30:43.451Z,97847.00
2023-05-13T10:33:09.944Z,97846.00
2023-05-13T10:35:42.969Z,97856.00
2023-05-13T10:38:33.923Z,97843.00
2023-05-13T10:41:54.372Z,97823.00
2023-05-13T10:44:21.168Z,97822.00
2023-05-13T10:46:48.012Z,97815.00
2023-05-13T10:49:17.755Z,97819.00
2023-05-13T10:51:49.288Z,97809.00
2023-05-13T10:54:24.251Z,97817.00
2023-05-13T10:56:58.459Z,97813.00
2023-05-13T10:59:25.161Z,97799.00
2023-05-13T11:01:51.338Z,97793.00
2023-05-13T11:04:20.630Z,97788.00
2023-05-13T11:06:49.928Z,97797.00
2023-05-13T11:09:22.119Z,97792.00
2023-05-13T11:11:54.485Z,97802.00
2023-05-13T11:14:26.250Z,97785.00
2023-05-13T11:17:01.231Z,97797.00
2023-05-13T11:19:29.255Z,97795.00
2023-05-13T11:22:14.235Z,97781.00
2023-05-13T11:24:43.703Z,97773.00
2023-05-13T11:27:20.873Z,97760.00
2023-05-13T11:29:55.538Z,97756.00
2023-05-13T11:33:01.482Z,97757.00
2023-05-13T11:35:32.741Z,97765.00
2023-05-13T11:38:02.606Z,97751.00
2023-05-13T11:40:35.583Z,97753.00
2023-05-13T11:43:04.430Z,97754.00
2023-05-13T11:45:31.192Z,97748.00
2023-05-13T11:47:57.825Z,97745.00
2023-05-13T11:50:34.548Z,97777.00
2023-05-13T11:53:01.860Z,97781.00
2023-05-13T11:55:34.349Z,97782.00
2023-05-13T11:58:00.815Z,97780.00
2023-05-13T12:00:33.520Z,97787.00
2023-05-13T12:03:08.216Z,97782.00
2023-05-13T12:05:35.234Z,97783.00
2023-05-13T12:08:07.726Z,97780.00
2023-05-13T12:10:34.235Z,97783.00
2023-05-13T12:13:00.679Z,97775.00
2023-05-13T12:15:28.248Z,97767.00
2023-05-13T12:17:54.691Z,97754.00
2023-05-13T12:20:23.097Z,97783.00
2023-05-13T12:22:52.400Z,97786.00
2023-05-13T12:25:39.572Z,97782.00
2023-05-13T12:28:27.235Z,97771.00
2023-05-13T12:31:00.453Z,97777.00
2023-05-13T12:33:41.790Z,97781.00
2023-05-13T12:36:25.337Z,97780.00
2023-05-13T12:39:03.643Z,97775.00
2023-05-13T12:41:38.832Z,97803.00
2023-05-13T12:44:10.266Z,97820.00
2023-05-13T12:46:36.993Z,97840.00
2023-05-13T12:49:05.258Z,97851.00
2023-05-13T12:51:34.832Z,97837.00
2023-05-13T12:54:01.065Z,97835.00
2023-05-13T12:56:31.444Z,97823.00
2023-05-13T12:58:58.113Z,97851.00
2023-05-13T13:01:24.426Z,97840.00
2023-05-13T13:03:50.785Z,97853.00
2023-05-13T13:06:17.196Z,97856.00
2023-05-13T13:08:43.495Z,97862.00
2023-05-13T13:11:09.933Z,97884.00
2023-05-13T13:13:38.250Z,97868.00
2023-05-13T13:16:06.022Z,97868.00
2023-05-13T13:18:32.469Z,97853.00
2023-05-13T13:20:58.702Z,97850.00
2023-05-13T13:23:25.038Z,97831.00
2023-05-13T13:25:51.206Z,97821.00
2023-05-13T13:28:17.478Z,97819.00
2023-05-13T13:30:46.047Z,97816.00
2023-05-13T13:33:14.337Z,97831.00
2023-05-13T13:35:43.613Z,97820.00
2023-05-13T13:38:10.212Z,97816.00
2023-05-13T13:40:36.674Z,97807.00
2023-05-13T13:43:04.422Z,97806.00
2023-05-13T13:45:30.570Z,97818.00
2023-05-13T13:47:57.946Z,97828.00
2023-05-13T13:50:24.607Z,97858.00
2023-05-13T13:52:54.162Z,97834.00
2023-05-13T13:55:21.874Z,97832.00
2023-05-13T13:57:48.183Z,97848.00
2023-05-13T14:00:15.368Z,97845.00
2023-05-13T14:02:43.365Z,97835.00
2023-05-13T14:05:11.973Z,97847.00
2023-05-13T14:07:38.503Z,97840.00
2023-05-13T14:10:06.493Z,97850.00
2023-05-13T14:12:34.956Z,97851.00
2023-05-13T14:15:01.260Z,97844.00
2023-05-13T14:17:28.144Z,97844.00
2023-05-13T14:19:54.456Z,97846.00
2023-05-13T14:22:24.085Z,97845.00
2023-05-13T14:24:51.935Z,97849.00
2023-05-13T14:27:18.946Z,97853.00
2023-05-13T14:29:48.402Z,97858.00
2023-05-13T14:32:14.875Z,97844.00
2023-05-13T14:34:41.929Z,97838.00
2023-05-13T14:37:08.607Z,97835.00
2023-05-13T14:39:34.849Z,97845.00
2023-05-13T14:42:01.288Z,97848.00
2023-05-13T14:44:27.432Z,97849.00
2023-05-13T14:46:54.057Z,97856.00
2023-05-13T14:49:20.528Z,97844.00
2023-05-13T14:51:46.638Z,97844.00
2023-05-13T14:54:12.792Z,97840.00
2023-05-13T14:56:40.641Z,97830.00
2023-05-13T14:59:06.930Z,97802.00
2023-05-13T15:01:34.033Z,97811.00
2023-05-13T15:04:00.460Z,97810.00
2023-05-13T15:06:26.703Z,97814.00
2023-05-13T15:08:53.247Z,97812.00
2023-05-13T15:11:19.410Z,97809.00
2023-05-13T15:13:45.618Z,97806.00
2023-05-13T15:16:12.110Z,97811.00
2023-05-13T15:18:38.302Z,97792.00
2023-05-13T15:21:04.583Z,97806.00
2023-05-13T15:23:31.073Z,97788.00
2023-05-13T15:25:57.422Z,97785.00
2023-05-13T15:28:23.647Z,97793.00
2023-05-13T15:30:50.522Z,97794.00
2023-05-13T15:33:16.973Z,97787.00
2023-05-13T15:35:43.246Z,97790.00
2023-05-13T15:38:10.065Z,97778.00
2023-05-13T15:40:37.890Z,97786.00
2023-05-13T15:43:04.206Z,97781.00
2023-05-13T15:45:30.355Z,97782.00
2023-05-13T15:47:56.573Z,97765.00
2023-05-13T15:50:23.582Z,97766.00
2023-05-13T15:52:50.282Z,97757.00
2023-05-13T15:55:16.717Z,97768.00
2023-05-13T15:57:42.871Z,97768.00
2023-05-13T16:00:10.012Z,97770.00
2023-05-13T16:02:38.973Z,97775.00
2023-05-13T16:05:07.004Z,97780.00
2023-05-13T16:07:33.219Z,97771.00
2023-05-13T16:09:59.398Z,97761.00
2023-05-13T16:12:25.869Z,97747.00
2023-05-13T16:14:52.259Z,97755.00
2023-05-13T16:17:18.374Z,97746.00
2023-05-13T16:19:44.470Z,97737.00
2023-05-13T16:22:37.035Z,97742.00
2023-05-13T16:25:05.988Z,97749.00
2023-05-13T16:27:33.328Z,97769.00
2023-05-13T16:30:01.311Z,97769.00
2023-05-13T16:32:28.119Z,97751.00
2023-05-13T16:34:54.900Z,97759.00
2023-05-13T16:37:21.168Z,97766.00
2023-05-13T16:39:47.317Z,97744.00
2023-05-13T16:42:13.489Z,97760.00
2023-05-13T16:44:39.893Z,97755.00
2023-05-13T16:47:10.407Z,97757.00
2023-05-13T16:49:37.104Z,97756.00
2023-05-13T16:52:04.836Z,97748.00
2023-05-13T16:54:31.292Z,97748.00
2023-05-13T16:56:58.885Z,97762.00
2023-05-13T16:59:27.572Z,97751.00
2023-05-13T17:01:54.029Z,97744.00
2023-05-13T17:04:20.497Z,97756.00
2023-05-13T17:06:47.257Z,97745.00
2023-05-13T17:09:13.417Z,97766.00
2023-05-13T17:11:39.646Z,97759.00
2023-05-13T17:14:06.346Z,97746.00
2023-05-13T17:16:32.640Z,97751.00
2023-05-13T17:18:59.412Z,97766.00
2023-05-13T17:21:26.358Z,97769.00
2023-05-13T17:23:52.766Z,97759.00
2023-05-13T17:26:21.333Z,97757.00
2023-05-13T17:28:48.615Z,97756.00
2023-05-13T17:31:14.798Z,97749.00
2023-05-13T17:33:41.269Z,97771.00
2023-05-13T17:36:07.648Z,97756.00
2023-05-13T17:38:33.795Z,97754.00
2023-05-13T17:40:59.935Z,97769.00
2023-05-13T17:43:26.531Z,97766.00
2023-05-13T17:45:52.700Z,97771.00
2023-05-13T17:48:22.007Z,97758.00
2023-05-13T17:50:48.217Z,97773.00
2023-05-13T17:53:14.322Z,97773.00
2023-05-13T17:55:40.628Z,97780.00
2023-05-13T17:58:06.786Z,97777.00
2023-05-13T18:00:33.201Z,97778.00
2023-05-13T18:02:59.693Z,97768.00
2023-05-13T18:05:26.062Z,97768.00
2023-05-13T18:07:52.447Z,97776.00
2023-05-13T18:10:18.741Z,97769.00
2023-05-13T18:12:45.257Z,97781.00
2023-05-13T18:15:11.956Z,97781.00
2023-05-13T18:17:38.263Z,97767.00
2023-05-13T18:20:05.568Z,97770.00
2023-05-13T18:22:31.845Z,97779.00
2023-05-13T18:24:58.181Z,97777.00
2023-05-13T18:27:30.483Z,97767.00
2023-05-13T18:29:56.922Z,97767.00
2023-05-13T18:32:23.160Z,97762.00
2023-05-13T18:34:49.314Z,97777.00
2023-05-13T18:37:15.460Z,97756.00
2023-05-13T18:39:45.058Z,97777.00
2023-05-13T18:42:14.135Z,97768.00
2023-05-13T18:44:40.324Z,97762.00
2023-05-13T18:47:06.577Z,97771.00
2023-05-13T18:49:33.067Z,97781.00
2023-05-13T18:51:59.476Z,97784.00
2023-05-13T18:54:28.347Z,97777.00
2023-05-13T18:56:57.880Z,97776.00
2023-05-13T18:59:24.253Z,97784.00
2023-05-13T19:01:50.750Z,97782.00
2023-05-13T19:04:17.134Z,97781.00
2023-05-13T19:06:43.421Z,97791.00
2023-05-13T19:09:09.621Z,97800.00
2023-05-13T19:11:35.772Z,97797.00
2023-05-13T19:14:01.993Z,97789.00
2023-05-13T19:16:28.402Z,97788.00
2023-05-13T19:18:54.771Z,97791.00
2023-05-13T19:21:22.568Z,97795.00
2023-05-13T19:23:49.685Z,97788.00
2023-05-13T19:26:16.066Z,97792.00
2023-05-13T19:28:45.766Z,97807.00
2023-05-13T19:31:11.949Z,97800.00
2023-05-13T19:33:38.440Z,97789.00
2023-05-13T19:36:06.142Z,97786.00
2023-05-13T19:38:34.334Z,97791.00
2023-05-13T19:41:00.919Z,97803.00
2023-05-13T19:43:27.038Z,97809.00
2023-05-13T19:45:55.027Z,97811.00
2023-05-13T19:48:21.312Z,97810.00
2023-05-13T19:50:47.446Z,97816.00
2023-05-13T19:53:13.644Z,97802.00
2023-05-13T19:55:40.501Z,97814.00
2023-05-13T19:58:07.025Z,97819.00
2023-05-13T20:00:33.170Z,97822.00
2023-05-13T20:02:59.500Z,97814.00
2023-05-13T20:05:25.795Z,97818.00
2023-05-13T20:07:52.081Z,97806.00
2023-05-13T20:10:18.251Z,97813.00
2023-05-13T20:12:44.813Z,97817.00
2023-05-13T20:15:11.084Z,97827.00
2023-05-13T20:17:37.337Z,97822.00
2023-05-13T20:20:04.583Z,97809.00
2023-05-13T20:22:30.986Z,97814.00
2023-05-13T20:24:57.332Z,97819.00
2023-05-13T20:27:23.478Z,97818.00
2023-05-13T20:29:50.261Z,97813.00
2023-05-13T20:32:20.564Z,97814.00
2023-05-13T20:34:46.689Z,97812.00
2023-05-13T20:37:13.411Z,97828.00
2023-05-13T20:39:39.536Z,97817.00
2023-05-13T20:42:05.897Z,97821.00
2023-05-13T20:44:32.084Z,97813.00
2023-05-13T20:46:58.260Z,97799.00
2023-05-13T20:49:24.602Z,97816.00
2023-05-13T20:51:50.772Z,97822.00
2023-05-13T20:54:17.165Z,97815.00
2023-05-13T20:56:43.293Z,97825.00
2023-05-13T20:59:09.855Z,97825.00
2023-05-13T21:01:36.149Z,97817.00
2023-05-13T21:04:05.450Z,97812.00
2023-05-13T21:06:32.217Z,97813.00
2023-05-13T21:08:58.399Z,97815.00
2023-05-13T21:11:24.780Z,97815.00
2023-05-13T21:13:51.193Z,97812.00
2023-05-13T21:16:17.644Z,97828.00
2023-05-13T21:18:44.087Z,97844.00
2023-05-13T21:21:11.808Z,97838.00
2023-05-13T21:23:45.379Z,97831.00
2023-05-13T21:26:12.778Z,97830.00
2023-05-13T21:28:40.125Z,97835.00
2023-05-13T21:31:06.587Z,97825.00
2023-05-13T21:33:33.078Z,97844.00
2023-05-13T21:35:59.560Z,97843.00
2023-05-13T21:38:26.366Z,97836.00
2023-05-13T21:40:52.723Z,97833.00
2023-05-13T21:43:19.065Z,97827.00
2023-05-13T21:45:47.532Z,97839.00
2023-05-13T21:48:13.873Z,97826.00
2023-05-13T21:50:40.300Z,97831.00
2023-05-13T21:53:06.479Z,97826.00
2023-05-13T21:55:34.093Z,97827.00
2023-05-13T21:58:01.956Z,97836.00
2023-05-13T22:00:28.068Z,97827.00
2023-05-13T22:02:56.668Z,97835.00
2023-05-13T22:05:23.204Z,97819.00
2023-05-13T22:07:49.410Z,97843.00
2023-05-13T22:10:15.686Z,97832.00
2023-05-13T22:12:42.140Z,97829.00
2023-05-13T22:15:09.233Z,97831.00
2023-05-13T22:17:35.484Z,97836.00
2023-05-13T22:20:02.074Z,97843.00
2023-05-13T22:22:28.253Z,97838.00
2023-05-13T22:24:54.614Z,97829.00
2023-05-13T22:27:20.876Z,97827.00
2023-05-13T22:29:47.295Z,97825.00
2023-05-13T22:32:13.933Z,97829.00
2023-05-13T22:34:40.446Z,97835.00
2023-05-13T22:37:06.630Z,97842.00
2023-05-13T22:39:33.072Z,97836.00
2023-05-13T22:41:59.586Z,97822.00
2023-05-13T22:44:25.783Z,97827.00
2023-05-13T22:46:53.463Z,97844.00
2023-05-13T22:49:19.638Z,97828.00
2023-05-13T22:51:47.085Z,97834.00
2023-05-13T22:54:13.278Z,97847.00
2023-05-13T22:56:39.685Z,97835.00
2023-05-13T22:59:05.899Z,97840.00
2023-05-13T23:01:32.480Z,97821.00
2023-05-13T23:03:58.898Z,97833.00
2023-05-13T23:06:26.049Z,97825.00
2023-05-13T23:08:52.499Z,97819.00
2023-05-13T23:11:18.752Z,97837.00
2023-05-13T23:13:44.938Z,97824.00
2023-05-13T23:16:11.121Z,97825.00
2023-05-13T23:18:37.293Z,97812.00
2023-05-13T23:21:03.700Z,97826.00
2023-05-13T23:23:29.860Z,97812.00
2023-05-13T23:25:56.212Z,97824.00
2023-05-13T23:28:22.432Z,97827.00
2023-05-13T23:30:53.296Z,97820.00
2023-05-13T23:33:19.850Z,97813.00
2023-05-13T23:35:52.914Z,97811.00
2023-05-13T23:38:19.877Z,97813.00
2023-05-13T23:40:46.095Z,97806.00
2023-05-13T23:43:12.257Z,97817.00
2023-05-13T23:45:38.712Z,97797.00
2023-05-13T23:48:05.164Z,97807.00
2023-05-13T23:50:31.987Z,97803.00
2023-05-13T23:52:58.163Z,97798.00
2023-05-13T23:55:24.941Z,97807.00
2023-05-13T23:57:51.301Z,97796.00
